sensor_id;sensor_type;location;lat;lon;timestamp;temperature;humidity
1355;DHT22;671;48.972;9.276;2022-11-22T00:00:17;7.50;99.90
1355;DHT22;671;48.972;9.276;2022-11-22T00:02:44;7.50;99.90
1355;DHT22;671;48.972;9.276;2022-11-22T00:05:11;7.50;99.90
1355;DHT22;671;48.972;9.276;2022-11-22T00:07:37;7.60;99.90
1355;DHT22;671;48.972;9.276;2022-11-22T00:10:06;7.60;99.90
1355;DHT22;671;48.972;9.276;2022-11-22T00:12:33;7.60;99.90
1355;DHT22;671;48.972;9.276;2022-11-22T00:14:59;7.60;99.90
1355;DHT22;671;48.972;9.276;2022-11-22T00:17:26;7.60;99.90
1355;DHT22;671;48.972;9.276;2022-11-22T00:19:52;7.60;99.90
1355;DHT22;671;48.972;9.276;2022-11-22T00:22:19;7.60;99.90
1355;DHT22;671;48.972;9.276;2022-11-22T00:24:46;7.60;99.90
1355;DHT22;671;48.972;9.276;2022-11-22T00:27:12;7.60;99.90
1355;DHT22;671;48.972;9.276;2022-11-22T00:29:38;7.60;99.90
1355;DHT22;671;48.972;9.276;2022-11-22T00:32:05;7.60;99.90
1355;DHT22;671;48.972;9.276;2022-11-22T00:34:31;7.60;99.90
1355;DHT22;671;48.972;9.276;2022-11-22T00:36:58;7.60;99.90
1355;DHT22;671;48.972;9.276;2022-11-22T00:39:24;7.60;99.90
1355;DHT22;671;48.972;9.276;2022-11-22T00:41:51;7.60;99.90
1355;DHT22;671;48.972;9.276;2022-11-22T00:44:17;7.60;99.90
1355;DHT22;671;48.972;9.276;2022-11-22T00:46:44;7.60;99.90
1355;DHT22;671;48.972;9.276;2022-11-22T00:49:10;7.70;99.90
1355;DHT22;671;48.972;9.276;2022-11-22T00:51:37;7.70;99.90
1355;DHT22;671;48.972;9.276;2022-11-22T00:54:03;7.70;99.90
1355;DHT22;671;48.972;9.276;2022-11-22T00:56:30;7.70;99.90
1355;DHT22;671;48.972;9.276;2022-11-22T00:58:57;7.70;99.90
1355;DHT22;671;48.972;9.276;2022-11-22T01:01:24;7.80;99.90
1355;DHT22;671;48.972;9.276;2022-11-22T01:03:50;7.80;99.90
1355;DHT22;671;48.972;9.276;2022-11-22T01:06:17;7.70;99.90
1355;DHT22;671;48.972;9.276;2022-11-22T01:08:44;7.70;99.90
1355;DHT22;671;48.972;9.276;2022-11-22T01:11:10;7.80;99.90
1355;DHT22;671;48.972;9.276;2022-11-22T01:13:37;7.80;99.90
1355;DHT22;671;48.972;9.276;2022-11-22T01:16:06;7.80;99.90
1355;DHT22;671;48.972;9.276;2022-11-22T01:18:33;7.80;99.90
1355;DHT22;671;48.972;9.276;2022-11-22T01:21:00;7.80;99.90
1355;DHT22;671;48.972;9.276;2022-11-22T01:23:26;7.80;99.90
1355;DHT22;671;48.972;9.276;2022-11-22T01:25:53;7.80;99.90
1355;DHT22;671;48.972;9.276;2022-11-22T01:28:19;7.80;99.90
1355;DHT22;671;48.972;9.276;2022-11-22T01:30:49;7.80;99.90
1355;DHT22;671;48.972;9.276;2022-11-22T01:33:16;7.80;99.90
1355;DHT22;671;48.972;9.276;2022-11-22T01:35:43;7.80;99.90
1355;DHT22;671;48.972;9.276;2022-11-22T01:38:10;7.80;99.90
1355;DHT22;671;48.972;9.276;2022-11-22T01:40:37;7.80;99.90
1355;DHT22;671;48.972;9.276;2022-11-22T01:43:05;7.90;99.90
1355;DHT22;671;48.972;9.276;2022-11-22T01:45:40;7.90;99.90
1355;DHT22;671;48.972;9.276;2022-11-22T01:48:17;7.90;99.90
1355;DHT22;671;48.972;9.276;2022-11-22T01:50:47;7.80;99.90
1355;DHT22;671;48.972;9.276;2022-11-22T01:53:33;7.90;99.90
1355;DHT22;671;48.972;9.276;2022-11-22T01:56:04;7.80;99.90
1355;DHT22;671;48.972;9.276;2022-11-22T01:58:33;7.80;99.90
1355;DHT22;671;48.972;9.276;2022-11-22T02:01:02;7.80;99.90
1355;DHT22;671;48.972;9.276;2022-11-22T02:03:31;7.80;99.90
1355;DHT22;671;48.972;9.276;2022-11-22T02:05:59;7.80;99.90
1355;DHT22;671;48.972;9.276;2022-11-22T02:08:41;7.80;99.90
1355;DHT22;671;48.972;9.276;2022-11-22T02:11:10;7.80;99.90
1355;DHT22;671;48.972;9.276;2022-11-22T02:13:40;7.90;99.90
1355;DHT22;671;48.972;9.276;2022-11-22T02:16:08;7.90;99.90
1355;DHT22;671;48.972;9.276;2022-11-22T02:18:35;7.90;99.90
1355;DHT22;671;48.972;9.276;2022-11-22T02:21:03;7.90;99.90
1355;DHT22;671;48.972;9.276;2022-11-22T02:23:55;7.90;99.90
1355;DHT22;671;48.972;9.276;2022-11-22T02:26:26;7.90;99.90
1355;DHT22;671;48.972;9.276;2022-11-22T02:28:54;7.90;99.90
1355;DHT22;671;48.972;9.276;2022-11-22T02:31:42;8.00;99.90
1355;DHT22;671;48.972;9.276;2022-11-22T02:34:10;8.00;99.90
1355;DHT22;671;48.972;9.276;2022-11-22T02:36:47;8.00;99.90
1355;DHT22;671;48.972;9.276;2022-11-22T02:39:17;8.00;99.90
1355;DHT22;671;48.972;9.276;2022-11-22T02:41:45;8.00;99.90
1355;DHT22;671;48.972;9.276;2022-11-22T02:44:13;8.00;99.90
1355;DHT22;671;48.972;9.276;2022-11-22T02:46:51;8.00;99.90
1355;DHT22;671;48.972;9.276;2022-11-22T02:49:20;8.00;99.90
1355;DHT22;671;48.972;9.276;2022-11-22T02:51:48;7.90;99.90
1355;DHT22;671;48.972;9.276;2022-11-22T02:54:14;7.90;99.90
1355;DHT22;671;48.972;9.276;2022-11-22T02:56:41;7.90;99.90
1355;DHT22;671;48.972;9.276;2022-11-22T02:59:08;8.00;99.90
1355;DHT22;671;48.972;9.276;2022-11-22T03:01:35;8.00;99.90
1355;DHT22;671;48.972;9.276;2022-11-22T03:04:02;7.90;99.90
1355;DHT22;671;48.972;9.276;2022-11-22T03:06:29;7.90;99.90
1355;DHT22;671;48.972;9.276;2022-11-22T03:08:55;7.90;99.90
1355;DHT22;671;48.972;9.276;2022-11-22T03:11:22;7.90;99.90
1355;DHT22;671;48.972;9.276;2022-11-22T03:13:49;7.90;99.90
1355;DHT22;671;48.972;9.276;2022-11-22T03:16:15;7.80;99.90
1355;DHT22;671;48.972;9.276;2022-11-22T03:18:42;7.80;99.90
1355;DHT22;671;48.972;9.276;2022-11-22T03:21:09;7.80;99.90
1355;DHT22;671;48.972;9.276;2022-11-22T03:23:35;7.70;99.90
1355;DHT22;671;48.972;9.276;2022-11-22T03:26:07;7.70;99.90
1355;DHT22;671;48.972;9.276;2022-11-22T03:28:34;7.60;99.90
1355;DHT22;671;48.972;9.276;2022-11-22T03:31:00;7.50;99.90
1355;DHT22;671;48.972;9.276;2022-11-22T03:33:27;7.50;99.90
1355;DHT22;671;48.972;9.276;2022-11-22T03:35:56;7.40;99.90
1355;DHT22;671;48.972;9.276;2022-11-22T03:38:23;7.30;99.90
1355;DHT22;671;48.972;9.276;2022-11-22T03:40:49;7.30;99.90
1355;DHT22;671;48.972;9.276;2022-11-22T03:43:16;7.20;99.90
1355;DHT22;671;48.972;9.276;2022-11-22T03:45:46;7.20;99.90
1355;DHT22;671;48.972;9.276;2022-11-22T03:48:13;7.20;99.90
1355;DHT22;671;48.972;9.276;2022-11-22T03:50:40;7.20;99.90
1355;DHT22;671;48.972;9.276;2022-11-22T03:53:06;7.20;99.90
1355;DHT22;671;48.972;9.276;2022-11-22T03:55:33;7.20;99.90
1355;DHT22;671;48.972;9.276;2022-11-22T03:57:59;7.20;99.90
1355;DHT22;671;48.972;9.276;2022-11-22T04:00:26;7.20;99.90
1355;DHT22;671;48.972;9.276;2022-11-22T04:02:53;7.20;99.90
1355;DHT22;671;48.972;9.276;2022-11-22T04:05:19;7.20;99.90
1355;DHT22;671;48.972;9.276;2022-11-22T04:07:46;7.20;99.90
1355;DHT22;671;48.972;9.276;2022-11-22T04:10:12;7.20;99.90
1355;DHT22;671;48.972;9.276;2022-11-22T04:12:39;7.10;99.90
1355;DHT22;671;48.972;9.276;2022-11-22T04:15:06;7.10;99.90
1355;DHT22;671;48.972;9.276;2022-11-22T04:17:35;7.00;99.90
1355;DHT22;671;48.972;9.276;2022-11-22T04:20:28;7.00;99.90
1355;DHT22;671;48.972;9.276;2022-11-22T04:23:18;7.00;99.90
1355;DHT22;671;48.972;9.276;2022-11-22T04:25:46;6.90;99.90
1355;DHT22;671;48.972;9.276;2022-11-22T04:28:15;6.90;99.90
1355;DHT22;671;48.972;9.276;2022-11-22T04:30:42;6.80;99.90
1355;DHT22;671;48.972;9.276;2022-11-22T04:33:27;6.80;99.90
1355;DHT22;671;48.972;9.276;2022-11-22T04:35:54;6.80;99.90
1355;DHT22;671;48.972;9.276;2022-11-22T04:38:21;6.80;99.90
1355;DHT22;671;48.972;9.276;2022-11-22T04:40:48;6.80;99.90
1355;DHT22;671;48.972;9.276;2022-11-22T04:46:09;6.70;99.90
1355;DHT22;671;48.972;9.276;2022-11-22T04:48:36;6.60;99.90
1355;DHT22;671;48.972;9.276;2022-11-22T04:51:04;6.60;99.90
1355;DHT22;671;48.972;9.276;2022-11-22T04:53:50;6.70;99.90
1355;DHT22;671;48.972;9.276;2022-11-22T04:56:16;6.70;99.90
1355;DHT22;671;48.972;9.276;2022-11-22T04:58:43;6.70;99.90
1355;DHT22;671;48.972;9.276;2022-11-22T05:01:10;6.60;99.90
1355;DHT22;671;48.972;9.276;2022-11-22T05:03:37;6.60;99.90
1355;DHT22;671;48.972;9.276;2022-11-22T05:06:04;6.60;99.90
1355;DHT22;671;48.972;9.276;2022-11-22T05:08:31;6.50;99.90
1355;DHT22;671;48.972;9.276;2022-11-22T05:10:57;6.40;99.90
1355;DHT22;671;48.972;9.276;2022-11-22T05:13:32;6.40;99.90
1355;DHT22;671;48.972;9.276;2022-11-22T05:16:00;6.30;99.90
1355;DHT22;671;48.972;9.276;2022-11-22T05:18:28;6.20;99.90
1355;DHT22;671;48.972;9.276;2022-11-22T05:20:54;6.10;99.90
1355;DHT22;671;48.972;9.276;2022-11-22T05:23:22;6.10;99.90
1355;DHT22;671;48.972;9.276;2022-11-22T05:26:08;6.00;99.90
1355;DHT22;671;48.972;9.276;2022-11-22T05:28:37;6.00;99.90
1355;DHT22;671;48.972;9.276;2022-11-22T05:31:08;6.00;99.90
1355;DHT22;671;48.972;9.276;2022-11-22T05:33:37;5.90;99.90
1355;DHT22;671;48.972;9.276;2022-11-22T05:36:05;5.90;99.90
1355;DHT22;671;48.972;9.276;2022-11-22T05:38:32;5.90;99.90
1355;DHT22;671;48.972;9.276;2022-11-22T05:41:05;6.00;99.90
1355;DHT22;671;48.972;9.276;2022-11-22T05:43:32;6.00;99.90
1355;DHT22;671;48.972;9.276;2022-11-22T05:46:13;6.00;99.90
1355;DHT22;671;48.972;9.276;2022-11-22T05:48:41;6.00;99.90
1355;DHT22;671;48.972;9.276;2022-11-22T05:51:11;6.00;99.90
1355;DHT22;671;48.972;9.276;2022-11-22T05:53:39;6.00;99.90
1355;DHT22;671;48.972;9.276;2022-11-22T05:56:11;6.00;99.90
1355;DHT22;671;48.972;9.276;2022-11-22T05:58:37;6.00;99.90
1355;DHT22;671;48.972;9.276;2022-11-22T06:01:30;6.00;99.90
1355;DHT22;671;48.972;9.276;2022-11-22T06:03:56;6.00;99.90
1355;DHT22;671;48.972;9.276;2022-11-22T06:06:23;6.00;99.90
1355;DHT22;671;48.972;9.276;2022-11-22T06:08:49;6.00;99.90
1355;DHT22;671;48.972;9.276;2022-11-22T06:11:24;6.10;99.90
1355;DHT22;671;48.972;9.276;2022-11-22T06:13:59;6.20;99.90
1355;DHT22;671;48.972;9.276;2022-11-22T06:16:26;6.20;99.90
1355;DHT22;671;48.972;9.276;2022-11-22T06:18:53;6.20;99.90
1355;DHT22;671;48.972;9.276;2022-11-22T06:21:21;6.20;99.90
1355;DHT22;671;48.972;9.276;2022-11-22T06:23:54;6.20;99.90
1355;DHT22;671;48.972;9.276;2022-11-22T06:26:22;6.20;99.90
1355;DHT22;671;48.972;9.276;2022-11-22T06:28:49;6.30;99.90
1355;DHT22;671;48.972;9.276;2022-11-22T06:31:21;6.30;99.90
1355;DHT22;671;48.972;9.276;2022-11-22T06:33:48;6.30;99.90
1355;DHT22;671;48.972;9.276;2022-11-22T06:36:17;6.30;99.90
1355;DHT22;671;48.972;9.276;2022-11-22T06:38:44;6.30;99.90
1355;DHT22;671;48.972;9.276;2022-11-22T06:41:13;6.40;99.90
1355;DHT22;671;48.972;9.276;2022-11-22T06:43:41;6.40;99.90
1355;DHT22;671;48.972;9.276;2022-11-22T06:46:09;6.40;99.90
1355;DHT22;671;48.972;9.276;2022-11-22T06:48:37;6.40;99.90
1355;DHT22;671;48.972;9.276;2022-11-22T06:53:42;6.40;99.90
1355;DHT22;671;48.972;9.276;2022-11-22T06:58:42;6.40;99.90
1355;DHT22;671;48.972;9.276;2022-11-22T07:01:17;6.40;99.90
1355;DHT22;671;48.972;9.276;2022-11-22T07:03:46;6.40;99.90
1355;DHT22;671;48.972;9.276;2022-11-22T07:06:14;6.40;99.90
1355;DHT22;671;48.972;9.276;2022-11-22T07:08:41;6.40;99.90
1355;DHT22;671;48.972;9.276;2022-11-22T07:11:14;6.40;99.90
1355;DHT22;671;48.972;9.276;2022-11-22T07:13:41;6.40;99.90
1355;DHT22;671;48.972;9.276;2022-11-22T07:16:09;6.40;99.90
1355;DHT22;671;48.972;9.276;2022-11-22T07:18:36;6.50;99.90
1355;DHT22;671;48.972;9.276;2022-11-22T07:21:07;6.50;99.90
1355;DHT22;671;48.972;9.276;2022-11-22T07:23:34;6.50;99.90
1355;DHT22;671;48.972;9.276;2022-11-22T07:26:01;6.50;99.90
1355;DHT22;671;48.972;9.276;2022-11-22T07:28:27;6.50;99.90
1355;DHT22;671;48.972;9.276;2022-11-22T07:30:58;6.50;99.90
1355;DHT22;671;48.972;9.276;2022-11-22T07:33:26;6.60;99.90
1355;DHT22;671;48.972;9.276;2022-11-22T07:35:52;6.60;99.90
1355;DHT22;671;48.972;9.276;2022-11-22T07:38:19;6.60;99.90
1355;DHT22;671;48.972;9.276;2022-11-22T07:40:46;6.60;99.90
1355;DHT22;671;48.972;9.276;2022-11-22T07:43:12;6.70;99.90
1355;DHT22;671;48.972;9.276;2022-11-22T07:45:39;6.70;99.90
1355;DHT22;671;48.972;9.276;2022-11-22T07:48:05;6.80;99.90
1355;DHT22;671;48.972;9.276;2022-11-22T07:50:33;6.80;99.90
1355;DHT22;671;48.972;9.276;2022-11-22T07:53:00;6.90;99.90
1355;DHT22;671;48.972;9.276;2022-11-22T07:55:26;6.90;99.90
1355;DHT22;671;48.972;9.276;2022-11-22T07:57:53;6.90;99.90
1355;DHT22;671;48.972;9.276;2022-11-22T08:00:20;6.90;99.90
1355;DHT22;671;48.972;9.276;2022-11-22T08:02:45;6.90;99.90
1355;DHT22;671;48.972;9.276;2022-11-22T08:05:11;6.90;99.90
1355;DHT22;671;48.972;9.276;2022-11-22T08:07:37;6.90;99.90
1355;DHT22;671;48.972;9.276;2022-11-22T08:10:03;6.90;99.90
1355;DHT22;671;48.972;9.276;2022-11-22T08:12:29;6.80;99.90
1355;DHT22;671;48.972;9.276;2022-11-22T08:14:56;6.80;99.90
1355;DHT22;671;48.972;9.276;2022-11-22T08:17:22;6.80;99.90
1355;DHT22;671;48.972;9.276;2022-11-22T08:19:49;6.80;99.90
1355;DHT22;671;48.972;9.276;2022-11-22T08:22:18;6.90;99.90
1355;DHT22;671;48.972;9.276;2022-11-22T08:24:45;6.90;99.90
1355;DHT22;671;48.972;9.276;2022-11-22T08:27:11;6.90;99.90
1355;DHT22;671;48.972;9.276;2022-11-22T08:29:37;7.00;99.90
1355;DHT22;671;48.972;9.276;2022-11-22T08:32:04;7.00;99.90
1355;DHT22;671;48.972;9.276;2022-11-22T08:34:30;7.10;99.90
1355;DHT22;671;48.972;9.276;2022-11-22T08:36:57;7.20;99.90
1355;DHT22;671;48.972;9.276;2022-11-22T08:39:23;7.30;99.90
1355;DHT22;671;48.972;9.276;2022-11-22T08:41:50;7.30;99.90
1355;DHT22;671;48.972;9.276;2022-11-22T08:44:16;7.40;99.90
1355;DHT22;671;48.972;9.276;2022-11-22T08:46:43;7.50;99.90
1355;DHT22;671;48.972;9.276;2022-11-22T08:49:10;7.50;99.90
1355;DHT22;671;48.972;9.276;2022-11-22T08:51:36;7.60;99.90
1355;DHT22;671;48.972;9.276;2022-11-22T08:54:03;7.60;99.90
1355;DHT22;671;48.972;9.276;2022-11-22T08:56:29;7.70;99.90
1355;DHT22;671;48.972;9.276;2022-11-22T08:58:56;7.80;99.90
1355;DHT22;671;48.972;9.276;2022-11-22T09:01:22;7.80;99.90
1355;DHT22;671;48.972;9.276;2022-11-22T09:03:49;7.90;99.90
1355;DHT22;671;48.972;9.276;2022-11-22T09:06:18;8.00;99.90
1355;DHT22;671;48.972;9.276;2022-11-22T09:08:46;8.00;99.90
1355;DHT22;671;48.972;9.276;2022-11-22T09:11:14;8.10;99.90
1355;DHT22;671;48.972;9.276;2022-11-22T09:13:41;8.10;99.90
1355;DHT22;671;48.972;9.276;2022-11-22T09:16:13;8.20;99.90
1355;DHT22;671;48.972;9.276;2022-11-22T09:18:39;8.30;99.90
1355;DHT22;671;48.972;9.276;2022-11-22T09:21:12;8.40;99.90
1355;DHT22;671;48.972;9.276;2022-11-22T09:23:44;8.50;99.90
1355;DHT22;671;48.972;9.276;2022-11-22T09:26:14;8.60;99.90
1355;DHT22;671;48.972;9.276;2022-11-22T09:28:41;8.70;99.90
1355;DHT22;671;48.972;9.276;2022-11-22T09:31:13;8.70;99.90
1355;DHT22;671;48.972;9.276;2022-11-22T09:33:41;8.80;99.90
1355;DHT22;671;48.972;9.276;2022-11-22T09:36:18;8.90;99.90
1355;DHT22;671;48.972;9.276;2022-11-22T09:38:45;9.00;99.90
1355;DHT22;671;48.972;9.276;2022-11-22T09:41:36;9.10;99.90
1355;DHT22;671;48.972;9.276;2022-11-22T09:52:39;9.30;99.90
1355;DHT22;671;48.972;9.276;2022-11-22T09:55:22;9.30;99.90
1355;DHT22;671;48.972;9.276;2022-11-22T10:00:42;9.40;99.90
1355;DHT22;671;48.972;9.276;2022-11-22T10:03:41;9.40;99.90
1355;DHT22;671;48.972;9.276;2022-11-22T10:06:08;9.40;99.90
1355;DHT22;671;48.972;9.276;2022-11-22T10:13:57;9.50;99.90
1355;DHT22;671;48.972;9.276;2022-11-22T10:16:40;9.50;99.90
1355;DHT22;671;48.972;9.276;2022-11-22T10:19:15;9.50;99.90
1355;DHT22;671;48.972;9.276;2022-11-22T10:21:44;9.50;99.90
1355;DHT22;671;48.972;9.276;2022-11-22T10:24:15;9.60;99.90
1355;DHT22;671;48.972;9.276;2022-11-22T10:26:42;9.60;99.90
1355;DHT22;671;48.972;9.276;2022-11-22T10:29:49;9.60;99.90
1355;DHT22;671;48.972;9.276;2022-11-22T10:35:21;9.70;99.90
1355;DHT22;671;48.972;9.276;2022-11-22T10:38:01;9.70;99.90
1355;DHT22;671;48.972;9.276;2022-11-22T10:40:48;9.80;99.90
1355;DHT22;671;48.972;9.276;2022-11-22T10:43:27;9.80;99.90
1355;DHT22;671;48.972;9.276;2022-11-22T10:48:59;9.80;99.90
1355;DHT22;671;48.972;9.276;2022-11-22T10:57:26;10.00;99.90
1355;DHT22;671;48.972;9.276;2022-11-22T11:05:11;10.00;99.90
1355;DHT22;671;48.972;9.276;2022-11-22T11:07:45;10.00;99.90
1355;DHT22;671;48.972;9.276;2022-11-22T11:10:19;10.00;99.90
1355;DHT22;671;48.972;9.276;2022-11-22T11:12:57;10.00;99.90
1355;DHT22;671;48.972;9.276;2022-11-22T11:15:38;10.00;99.90
1355;DHT22;671;48.972;9.276;2022-11-22T11:18:20;10.00;99.90
1355;DHT22;671;48.972;9.276;2022-11-22T11:20:49;10.10;99.90
1355;DHT22;671;48.972;9.276;2022-11-22T11:23:17;10.10;99.90
1355;DHT22;671;48.972;9.276;2022-11-22T11:25:46;10.20;99.90
1355;DHT22;671;48.972;9.276;2022-11-22T11:28:25;10.10;99.90
1355;DHT22;671;48.972;9.276;2022-11-22T11:31:07;10.10;99.90
1355;DHT22;671;48.972;9.276;2022-11-22T11:33:37;10.20;99.90
1355;DHT22;671;48.972;9.276;2022-11-22T11:41:24;10.30;99.90
1355;DHT22;671;48.972;9.276;2022-11-22T11:43:53;10.40;99.90
1355;DHT22;671;48.972;9.276;2022-11-22T11:49:14;10.50;99.90
1355;DHT22;671;48.972;9.276;2022-11-22T11:51:42;10.50;99.90
1355;DHT22;671;48.972;9.276;2022-11-22T11:54:13;10.50;99.90
1355;DHT22;671;48.972;9.276;2022-11-22T11:59:20;10.60;99.90
1355;DHT22;671;48.972;9.276;2022-11-22T12:09:50;10.70;99.90
1355;DHT22;671;48.972;9.276;2022-11-22T12:12:31;10.70;99.90
1355;DHT22;671;48.972;9.276;2022-11-22T12:17:49;10.70;99.90
1355;DHT22;671;48.972;9.276;2022-11-22T12:20:56;10.70;99.90
1355;DHT22;671;48.972;9.276;2022-11-22T12:23:37;10.70;99.90
1355;DHT22;671;48.972;9.276;2022-11-22T12:26:05;10.70;99.90
1355;DHT22;671;48.972;9.276;2022-11-22T12:28:32;10.60;99.90
1355;DHT22;671;48.972;9.276;2022-11-22T12:33:36;10.60;99.90
1355;DHT22;671;48.972;9.276;2022-11-22T12:36:24;10.60;99.90
1355;DHT22;671;48.972;9.276;2022-11-22T12:38:53;10.60;99.90
1355;DHT22;671;48.972;9.276;2022-11-22T12:41:24;10.50;99.90
1355;DHT22;671;48.972;9.276;2022-11-22T12:46:25;10.50;99.90
1355;DHT22;671;48.972;9.276;2022-11-22T12:48:57;10.40;99.90
1355;DHT22;671;48.972;9.276;2022-11-22T12:54:04;10.50;99.90
1355;DHT22;671;48.972;9.276;2022-11-22T12:56:48;10.60;99.90
1355;DHT22;671;48.972;9.276;2022-11-22T13:02:23;10.50;99.90
1355;DHT22;671;48.972;9.276;2022-11-22T13:05:12;10.50;99.90
1355;DHT22;671;48.972;9.276;2022-11-22T13:08:18;10.40;99.90
1355;DHT22;671;48.972;9.276;2022-11-22T13:10:53;10.40;99.90
1355;DHT22;671;48.972;9.276;2022-11-22T13:15:54;10.30;99.90
1355;DHT22;671;48.972;9.276;2022-11-22T13:18:26;10.30;99.90
1355;DHT22;671;48.972;9.276;2022-11-22T13:21:04;10.40;99.90
1355;DHT22;671;48.972;9.276;2022-11-22T13:23:53;10.40;99.90
1355;DHT22;671;48.972;9.276;2022-11-22T13:26:40;10.30;99.90
1355;DHT22;671;48.972;9.276;2022-11-22T13:29:20;10.30;99.90
1355;DHT22;671;48.972;9.276;2022-11-22T13:32:19;10.30;99.90
1355;DHT22;671;48.972;9.276;2022-11-22T13:35:43;10.30;99.90
1355;DHT22;671;48.972;9.276;2022-11-22T13:37:57;10.30;99.90
1355;DHT22;671;48.972;9.276;2022-11-22T13:40:42;10.20;99.90
1355;DHT22;671;48.972;9.276;2022-11-22T13:51:10;10.10;99.90
1355;DHT22;671;48.972;9.276;2022-11-22T13:53:41;10.20;99.90
1355;DHT22;671;48.972;9.276;2022-11-22T14:04:36;10.10;99.90
1355;DHT22;671;48.972;9.276;2022-11-22T14:12:24;10.00;99.90
1355;DHT22;671;48.972;9.276;2022-11-22T14:20:57;9.90;99.90
1355;DHT22;671;48.972;9.276;2022-11-22T14:31:31;9.90;99.90
1355;DHT22;671;48.972;9.276;2022-11-22T14:34:18;9.90;99.90
1355;DHT22;671;48.972;9.276;2022-11-22T14:50:28;9.70;99.90
1355;DHT22;671;48.972;9.276;2022-11-22T14:52:59;9.60;99.90
1355;DHT22;671;48.972;9.276;2022-11-22T14:55:31;9.50;99.90
1355;DHT22;671;48.972;9.276;2022-11-22T14:58:01;9.40;99.90
1355;DHT22;671;48.972;9.276;2022-11-22T15:03:47;9.30;99.90
1355;DHT22;671;48.972;9.276;2022-11-22T15:17:21;9.10;99.90
1355;DHT22;671;48.972;9.276;2022-11-22T15:19:49;9.00;99.90
1355;DHT22;671;48.972;9.276;2022-11-22T15:22:18;9.00;99.90
1355;DHT22;671;48.972;9.276;2022-11-22T15:24:54;9.00;99.90
1355;DHT22;671;48.972;9.276;2022-11-22T15:27:29;9.00;99.90
1355;DHT22;671;48.972;9.276;2022-11-22T15:30:18;8.90;99.90
1355;DHT22;671;48.972;9.276;2022-11-22T15:32:50;8.90;99.90
1355;DHT22;671;48.972;9.276;2022-11-22T15:35:22;8.90;99.90
1355;DHT22;671;48.972;9.276;2022-11-22T15:40:33;8.80;99.90
1355;DHT22;671;48.972;9.276;2022-11-22T15:43:03;8.80;99.90
1355;DHT22;671;48.972;9.276;2022-11-22T15:45:32;8.70;99.90
1355;DHT22;671;48.972;9.276;2022-11-22T15:48:04;8.70;99.90
1355;DHT22;671;48.972;9.276;2022-11-22T15:50:31;8.80;99.90
1355;DHT22;671;48.972;9.276;2022-11-22T15:53:25;8.70;99.90
1355;DHT22;671;48.972;9.276;2022-11-22T15:56:37;8.70;99.90
1355;DHT22;671;48.972;9.276;2022-11-22T15:58:45;8.70;99.90
1355;DHT22;671;48.972;9.276;2022-11-22T16:01:17;8.70;99.90
1355;DHT22;671;48.972;9.276;2022-11-22T16:03:48;8.70;99.90
1355;DHT22;671;48.972;9.276;2022-11-22T16:06:18;8.70;99.90
1355;DHT22;671;48.972;9.276;2022-11-22T16:08:52;8.80;99.90
1355;DHT22;671;48.972;9.276;2022-11-22T16:11:29;8.80;99.90
1355;DHT22;671;48.972;9.276;2022-11-22T16:13:57;8.80;99.90
1355;DHT22;671;48.972;9.276;2022-11-22T16:16:27;8.80;99.90
1355;DHT22;671;48.972;9.276;2022-11-22T16:19:23;8.80;99.90
1355;DHT22;671;48.972;9.276;2022-11-22T16:21:56;8.80;99.90
1355;DHT22;671;48.972;9.276;2022-11-22T16:24:28;8.80;99.90
1355;DHT22;671;48.972;9.276;2022-11-22T16:27:00;8.80;99.90
1355;DHT22;671;48.972;9.276;2022-11-22T16:29:33;8.80;99.90
1355;DHT22;671;48.972;9.276;2022-11-22T16:32:18;8.80;99.90
1355;DHT22;671;48.972;9.276;2022-11-22T16:34:47;8.90;99.90
1355;DHT22;671;48.972;9.276;2022-11-22T16:39:50;8.90;99.90
1355;DHT22;671;48.972;9.276;2022-11-22T16:42:16;8.90;99.90
1355;DHT22;671;48.972;9.276;2022-11-22T16:44:43;8.90;99.90
1355;DHT22;671;48.972;9.276;2022-11-22T16:47:14;8.90;99.90
1355;DHT22;671;48.972;9.276;2022-11-22T16:49:41;8.90;99.90
1355;DHT22;671;48.972;9.276;2022-11-22T16:52:12;8.90;99.90
1355;DHT22;671;48.972;9.276;2022-11-22T16:54:39;8.90;99.90
1355;DHT22;671;48.972;9.276;2022-11-22T16:57:11;8.90;99.90
1355;DHT22;671;48.972;9.276;2022-11-22T16:59:38;8.90;99.90
1355;DHT22;671;48.972;9.276;2022-11-22T17:02:12;8.90;99.90
1355;DHT22;671;48.972;9.276;2022-11-22T17:04:39;8.90;99.90
1355;DHT22;671;48.972;9.276;2022-11-22T17:07:10;8.90;99.90
1355;DHT22;671;48.972;9.276;2022-11-22T17:09:37;8.90;99.90
1355;DHT22;671;48.972;9.276;2022-11-22T17:12:19;8.90;99.90
1355;DHT22;671;48.972;9.276;2022-11-22T17:14:48;8.90;99.90
1355;DHT22;671;48.972;9.276;2022-11-22T17:17:17;8.90;99.90
1355;DHT22;671;48.972;9.276;2022-11-22T17:19:43;9.00;99.90
1355;DHT22;671;48.972;9.276;2022-11-22T17:22:15;8.90;99.90
1355;DHT22;671;48.972;9.276;2022-11-22T17:24:42;8.90;99.90
1355;DHT22;671;48.972;9.276;2022-11-22T17:27:12;8.90;99.90
1355;DHT22;671;48.972;9.276;2022-11-22T17:29:39;9.00;99.90
1355;DHT22;671;48.972;9.276;2022-11-22T17:32:10;9.00;99.90
1355;DHT22;671;48.972;9.276;2022-11-22T17:34:37;9.00;99.90
1355;DHT22;671;48.972;9.276;2022-11-22T17:37:10;9.00;99.90
1355;DHT22;671;48.972;9.276;2022-11-22T17:39:37;9.00;99.90
1355;DHT22;671;48.972;9.276;2022-11-22T17:42:04;9.10;99.90
1355;DHT22;671;48.972;9.276;2022-11-22T17:44:30;9.00;99.90
1355;DHT22;671;48.972;9.276;2022-11-22T17:46:57;9.10;99.90
1355;DHT22;671;48.972;9.276;2022-11-22T17:49:23;9.10;99.90
1355;DHT22;671;48.972;9.276;2022-11-22T17:51:51;9.10;99.90
1355;DHT22;671;48.972;9.276;2022-11-22T17:54:17;9.10;99.90
1355;DHT22;671;48.972;9.276;2022-11-22T17:56:43;9.10;99.90
1355;DHT22;671;48.972;9.276;2022-11-22T17:59:10;9.20;99.90
1355;DHT22;671;48.972;9.276;2022-11-22T18:01:36;9.10;99.90
1355;DHT22;671;48.972;9.276;2022-11-22T18:04:03;9.10;99.90
1355;DHT22;671;48.972;9.276;2022-11-22T18:06:29;9.10;99.90
1355;DHT22;671;48.972;9.276;2022-11-22T18:08:56;9.10;99.90
1355;DHT22;671;48.972;9.276;2022-11-22T18:11:23;9.10;99.90
1355;DHT22;671;48.972;9.276;2022-11-22T18:13:49;9.10;99.90
1355;DHT22;671;48.972;9.276;2022-11-22T18:16:16;9.10;99.90
1355;DHT22;671;48.972;9.276;2022-11-22T18:18:44;9.10;99.90
1355;DHT22;671;48.972;9.276;2022-11-22T18:21:10;9.10;99.90
1355;DHT22;671;48.972;9.276;2022-11-22T18:23:39;9.10;99.90
1355;DHT22;671;48.972;9.276;2022-11-22T18:26:07;9.10;99.90
1355;DHT22;671;48.972;9.276;2022-11-22T18:28:37;9.10;99.90
1355;DHT22;671;48.972;9.276;2022-11-22T18:31:05;9.10;99.90
1355;DHT22;671;48.972;9.276;2022-11-22T18:33:31;9.10;99.90
1355;DHT22;671;48.972;9.276;2022-11-22T18:36:03;9.00;99.90
1355;DHT22;671;48.972;9.276;2022-11-22T18:38:30;9.10;99.90
1355;DHT22;671;48.972;9.276;2022-11-22T18:40:59;9.10;99.90
1355;DHT22;671;48.972;9.276;2022-11-22T18:43:25;9.00;99.90
1355;DHT22;671;48.972;9.276;2022-11-22T18:45:59;9.00;99.90
1355;DHT22;671;48.972;9.276;2022-11-22T18:48:25;9.00;99.90
1355;DHT22;671;48.972;9.276;2022-11-22T18:50:52;9.00;99.90
1355;DHT22;671;48.972;9.276;2022-11-22T18:53:18;9.00;99.90
1355;DHT22;671;48.972;9.276;2022-11-22T18:55:45;9.00;99.90
1355;DHT22;671;48.972;9.276;2022-11-22T18:58:12;9.00;99.90
1355;DHT22;671;48.972;9.276;2022-11-22T19:00:38;9.00;99.90
1355;DHT22;671;48.972;9.276;2022-11-22T19:03:05;9.00;99.90
1355;DHT22;671;48.972;9.276;2022-11-22T19:05:31;9.00;99.90
1355;DHT22;671;48.972;9.276;2022-11-22T19:07:58;9.00;99.90
1355;DHT22;671;48.972;9.276;2022-11-22T19:10:24;8.90;99.90
1355;DHT22;671;48.972;9.276;2022-11-22T19:12:50;8.90;99.90
1355;DHT22;671;48.972;9.276;2022-11-22T19:15:17;8.90;99.90
1355;DHT22;671;48.972;9.276;2022-11-22T19:17:43;8.90;99.90